createdAt,value
2018-08-04T00:00:09.446Z,98.39
2018-08-04T00:02:02.332Z,99.79
2018-08-04T00:03:02.185Z,99.99
2018-08-04T00:04:55.030Z,99.99
2018-08-04T00:05:54.924Z,99.99
2018-08-04T00:07:47.801Z,99.99
2018-08-04T00:08:47.681Z,99.99
2018-08-04T00:10:40.553Z,99.99
2018-08-04T00:11:40.433Z,99.99
2018-08-04T00:13:33.283Z,99.99
2018-08-04T00:14:33.174Z,99.99
2018-08-04T00:16:26.025Z,99.99
2018-08-04T00:17:25.926Z,99.99
2018-08-04T00:19:18.764Z,99.99
2018-08-04T00:20:18.691Z,99.99
2018-08-04T00:22:11.530Z,99.99
2018-08-04T00:23:11.432Z,99.99
2018-08-04T00:25:04.278Z,99.99
2018-08-04T00:26:04.172Z,99.99
2018-08-04T00:27:57.046Z,99.99
2018-08-04T00:28:56.930Z,99.99
2018-08-04T00:30:49.791Z,99.99
2018-08-04T00:31:49.681Z,99.99
2018-08-04T00:33:42.529Z,99.99
2018-08-04T00:34:42.442Z,99.99
2018-08-04T00:36:35.284Z,99.99
2018-08-04T00:37:35.167Z,99.99
2018-08-04T00:39:28.050Z,99.99
2018-08-04T00:40:27.927Z,99.99
2018-08-04T00:42:20.796Z,99.99
2018-08-04T00:43:20.677Z,99.99
2018-08-04T00:45:13.504Z,99.99
2018-08-04T00:46:13.417Z,99.99
2018-08-04T00:48:06.275Z,99.99
2018-08-04T00:49:06.196Z,99.99
2018-08-04T00:50:59.009Z,99.99
2018-08-04T00:51:58.915Z,99.99
2018-08-04T00:53:51.805Z,99.99
2018-08-04T00:54:51.690Z,99.99
2018-08-04T00:56:44.542Z,99.99
2018-08-04T00:57:44.417Z,99.99
2018-08-04T00:59:37.283Z,99.99
2018-08-04T01:00:37.204Z,99.99
2018-08-04T01:02:30.009Z,99.99
2018-08-04T01:03:29.915Z,99.99
2018-08-04T01:05:23.292Z,99.99
2018-08-04T01:06:22.674Z,99.99
2018-08-04T01:08:15.534Z,99.99
2018-08-04T01:09:15.413Z,99.99
2018-08-04T01:11:08.253Z,99.99
2018-08-04T01:12:08.172Z,99.99
2018-08-04T01:14:01.053Z,99.99
2018-08-04T01:15:00.914Z,99.99
2018-08-04T01:16:53.768Z,99.99
2018-08-04T01:17:53.663Z,99.99
2018-08-04T01:19:47.037Z,99.99
2018-08-04T01:20:46.416Z,99.99
2018-08-04T01:22:39.249Z,99.99
2018-08-04T01:23:39.169Z,99.99
2018-08-04T01:25:32.039Z,99.99
2018-08-04T01:26:31.911Z,99.99
2018-08-04T01:28:24.782Z,99.99
2018-08-04T01:29:24.667Z,99.99
2018-08-04T01:31:17.517Z,99.99
2018-08-04T01:32:17.409Z,99.99
2018-08-04T01:34:11.251Z,99.99
2018-08-04T01:35:11.091Z,99.99
2018-08-04T01:37:03.952Z,99.99
2018-08-04T01:38:03.840Z,99.99
2018-08-04T01:39:56.688Z,99.99
2018-08-04T01:40:56.583Z,99.99
2018-08-04T01:42:49.439Z,99.99
2018-08-04T01:43:49.329Z,99.99
2018-08-04T01:45:42.190Z,99.99
2018-08-04T01:46:42.099Z,99.99
2018-08-04T01:48:34.919Z,99.99
2018-08-04T01:49:34.828Z,99.99
2018-08-04T01:51:27.687Z,99.99
2018-08-04T01:52:27.609Z,99.99
2018-08-04T01:54:20.419Z,99.99
2018-08-04T01:55:20.330Z,99.99
2018-08-04T01:57:13.188Z,99.99
2018-08-04T01:58:13.082Z,99.99
2018-08-04T02:00:05.918Z,99.99
2018-08-04T02:01:05.831Z,99.99
2018-08-04T02:02:58.680Z,99.99
2018-08-04T02:03:58.580Z,99.99
2018-08-04T02:05:51.425Z,99.99
2018-08-04T02:06:51.325Z,99.99
2018-08-04T02:08:44.186Z,99.99
2018-08-04T02:09:44.073Z,99.99
2018-08-04T02:11:36.916Z,99.99
2018-08-04T02:12:36.840Z,99.99
2018-08-04T02:14:29.702Z,99.99
2018-08-04T02:15:29.569Z,99.99
2018-08-04T02:17:22.423Z,99.99
2018-08-04T02:18:22.341Z,99.99
2018-08-04T02:20:15.188Z,99.99
2018-08-04T02:21:15.077Z,99.99
2018-08-04T02:23:07.951Z,99.99
2018-08-04T02:24:07.825Z,99.99
2018-08-04T02:26:01.092Z,99.99
2018-08-04T02:27:00.994Z,99.99
2018-08-04T02:28:53.841Z,99.99
2018-08-04T02:29:53.740Z,99.99
2018-08-04T02:31:46.570Z,99.74
2018-08-04T02:32:46.480Z,99.45
2018-08-04T02:34:39.346Z,98.97
2018-08-04T02:35:39.234Z,98.87
2018-08-04T02:37:32.074Z,98.10
2018-08-04T02:38:31.997Z,97.47
2018-08-04T02:40:24.832Z,97.96
2018-08-04T02:41:24.726Z,98.44
2018-08-04T02:43:17.576Z,98.39
2018-08-04T02:44:17.481Z,99.07
2018-08-04T02:46:10.339Z,99.55
2018-08-04T02:47:10.228Z,99.99
2018-08-04T02:49:03.094Z,99.99
2018-08-04T02:50:02.979Z,99.99
2018-08-04T02:51:55.836Z,99.99
2018-08-04T02:52:55.738Z,99.99
2018-08-04T02:54:48.611Z,99.99
2018-08-04T02:55:48.478Z,99.99
2018-08-04T02:57:41.359Z,99.99
2018-08-04T02:58:41.233Z,99.99
2018-08-04T03:00:34.102Z,99.99
2018-08-04T03:01:33.981Z,99.99
2018-08-04T03:03:26.808Z,99.99
2018-08-04T03:04:26.725Z,99.99
2018-08-04T03:06:19.589Z,99.99
2018-08-04T03:07:19.482Z,99.99
2018-08-04T03:09:12.351Z,99.99
2018-08-04T03:10:12.227Z,99.99
2018-08-04T03:12:05.091Z,99.99
2018-08-04T03:13:04.978Z,99.99
2018-08-04T03:14:57.823Z,99.99
2018-08-04T03:15:57.745Z,99.99
2018-08-04T03:17:50.595Z,99.99
2018-08-04T03:18:50.509Z,99.99
2018-08-04T03:20:43.370Z,99.99
2018-08-04T03:21:43.256Z,99.99
2018-08-04T03:23:36.091Z,99.99
2018-08-04T03:24:35.988Z,99.99
2018-08-04T03:26:28.852Z,99.99
2018-08-04T03:27:28.752Z,99.99
2018-08-04T03:29:21.604Z,99.99
2018-08-04T03:30:21.495Z,99.99
2018-08-04T03:32:14.324Z,99.99
2018-08-04T03:33:14.243Z,99.99
2018-08-04T03:35:07.137Z,99.99
2018-08-04T03:36:06.973Z,99.99
2018-08-04T03:37:59.824Z,99.99
2018-08-04T03:38:59.732Z,99.99
2018-08-04T03:40:52.593Z,99.99
2018-08-04T03:41:52.488Z,99.99
2018-08-04T03:43:45.756Z,99.99
2018-08-04T03:44:45.637Z,99.99
2018-08-04T03:46:38.897Z,99.99
2018-08-04T03:47:38.793Z,99.99
2018-08-04T03:49:32.076Z,99.99
2018-08-04T03:50:31.985Z,99.99
2018-08-04T03:52:24.790Z,99.99
2018-08-04T03:53:24.693Z,99.99
2018-08-04T03:55:17.554Z,99.99
2018-08-04T03:56:17.447Z,99.99
2018-08-04T03:58:10.291Z,99.99
2018-08-04T03:59:10.196Z,99.99
2018-08-04T04:01:03.064Z,99.99
2018-08-04T04:02:02.959Z,99.99
2018-08-04T04:03:55.801Z,99.99
2018-08-04T04:04:55.722Z,99.99
2018-08-04T04:06:48.560Z,99.99
2018-08-04T04:07:48.455Z,99.99
2018-08-04T04:09:41.333Z,99.99
2018-08-04T04:10:41.199Z,99.99
2018-08-04T04:12:34.039Z,99.99
2018-08-04T04:13:33.943Z,99.99
2018-08-04T04:15:26.818Z,99.99
2018-08-04T04:16:26.701Z,99.99
2018-08-04T04:18:19.557Z,99.99
2018-08-04T04:19:19.462Z,99.99
2018-08-04T04:21:12.330Z,99.99
2018-08-04T04:22:12.191Z,99.99
2018-08-04T04:24:05.052Z,99.99
2018-08-04T04:25:04.947Z,99.99
2018-08-04T04:26:57.823Z,99.99
2018-08-04T04:27:57.716Z,99.99
2018-08-04T04:29:50.586Z,99.99
2018-08-04T04:30:50.451Z,99.99
2018-08-04T04:32:43.302Z,99.99
2018-08-04T04:33:43.195Z,99.99
2018-08-04T04:35:36.064Z,99.99
2018-08-04T04:36:35.940Z,99.99
2018-08-04T04:38:28.792Z,99.99
2018-08-04T04:39:28.696Z,99.99
2018-08-04T04:41:21.548Z,99.99
2018-08-04T04:42:21.471Z,99.99
2018-08-04T04:44:14.297Z,99.99
2018-08-04T04:45:14.191Z,99.99
2018-08-04T04:47:07.058Z,99.64
2018-08-04T04:48:06.962Z,98.92
2018-08-04T04:49:59.792Z,99.11
2018-08-04T04:50:59.688Z,99.21
2018-08-04T04:52:52.530Z,98.92
2018-08-04T04:53:52.453Z,99.02
2018-08-04T04:55:45.319Z,97.67
2018-08-04T04:56:45.227Z,96.99
2018-08-04T04:58:38.065Z,96.70
2018-08-04T04:59:37.955Z,96.80
2018-08-04T05:01:30.840Z,95.54
2018-08-04T05:02:30.721Z,93.43
2018-08-04T05:04:23.541Z,92.94
2018-08-04T05:05:23.454Z,92.75
2018-08-04T05:07:16.311Z,91.20
2018-08-04T05:08:16.202Z,91.20
2018-08-04T05:10:09.045Z,91.60
2018-08-04T05:11:08.938Z,91.20
2018-08-04T05:13:01.806Z,89.18
2018-08-04T05:14:01.688Z,88.60
2018-08-04T05:15:54.567Z,88.31
2018-08-04T05:16:54.577Z,88.12
2018-08-04T05:18:47.282Z,87.74
2018-08-04T05:19:47.193Z,87.45
2018-08-04T05:21:40.637Z,87.83
2018-08-04T05:22:39.941Z,86.96
2018-08-04T05:24:32.811Z,87.93
2018-08-04T05:25:32.704Z,88.02
2018-08-04T05:27:26.461Z,87.74
2018-08-04T05:28:26.354Z,88.31
2018-08-04T05:30:19.204Z,88.12
2018-08-04T05:31:19.130Z,88.22
2018-08-04T05:33:11.950Z,87.26
2018-08-04T05:34:11.852Z,87.45
2018-08-04T05:36:04.725Z,85.75
2018-08-04T05:37:04.628Z,85.52
2018-08-04T05:38:57.554Z,85.17
2018-08-04T05:39:57.493Z,85.94
2018-08-04T05:41:50.332Z,85.56
2018-08-04T05:42:50.231Z,84.98
2018-08-04T05:44:43.184Z,82.48
2018-08-04T05:45:43.060Z,83.25
2018-08-04T05:47:36.033Z,83.83
2018-08-04T05:48:35.912Z,83.44
2018-08-04T05:50:28.874Z,83.44
2018-08-04T05:51:28.762Z,83.05
2018-08-04T05:53:21.750Z,83.63
2018-08-04T05:54:21.642Z,83.44
2018-08-04T05:56:14.594Z,83.53
2018-08-04T05:57:14.476Z,83.83
2018-08-04T05:59:07.410Z,83.83
2018-08-04T06:00:07.317Z,84.01
2018-08-04T06:02:00.298Z,83.73
2018-08-04T06:03:00.189Z,83.87
2018-08-04T06:04:53.153Z,83.39
2018-08-04T06:05:53.019Z,84.54
2018-08-04T06:07:45.981Z,82.71
2018-08-04T06:08:45.887Z,83.09
2018-08-04T06:10:38.850Z,82.81
2018-08-04T06:11:38.764Z,83.00
2018-08-04T06:13:31.676Z,81.78
2018-08-04T06:14:31.587Z,81.88
2018-08-04T06:16:24.539Z,82.17
2018-08-04T06:17:24.439Z,82.07
2018-08-04T06:19:17.371Z,82.36
2018-08-04T06:20:17.302Z,81.88
2018-08-04T06:22:10.259Z,82.07
2018-08-04T06:23:10.154Z,81.44
2018-08-04T06:25:03.110Z,82.31
2018-08-04T06:26:03.001Z,81.34
2018-08-04T06:27:55.972Z,82.02
2018-08-04T06:28:55.854Z,81.05
2018-08-04T06:30:48.798Z,80.90
2018-08-04T06:31:48.707Z,80.12
2018-08-04T06:33:41.628Z,81.19
2018-08-04T06:34:41.552Z,81.29
2018-08-04T06:36:34.522Z,80.99
2018-08-04T06:37:34.400Z,80.22
2018-08-04T06:39:27.335Z,79.58
2018-08-04T06:40:27.255Z,79.29
2018-08-04T06:42:20.209Z,79.20
2018-08-04T06:43:20.120Z,79.49
2018-08-04T06:45:13.059Z,78.75
2018-08-04T06:46:12.982Z,77.69
2018-08-04T06:48:06.317Z,77.40
2018-08-04T06:49:06.212Z,76.82
2018-08-04T06:50:59.175Z,76.66
2018-08-04T06:51:59.065Z,76.08
2018-08-04T06:53:52.012Z,75.21
2018-08-04T06:54:51.916Z,75.50
2018-08-04T06:56:44.877Z,74.96
2018-08-04T06:57:44.766Z,74.47
2018-08-04T06:59:37.713Z,73.60
2018-08-04T07:00:37.635Z,73.15
2018-08-04T07:02:30.580Z,73.05
2018-08-04T07:03:30.476Z,72.09
2018-08-04T07:05:24.067Z,72.31
2018-08-04T07:06:23.947Z,72.02
2018-08-04T07:08:16.913Z,72.12
2018-08-04T07:09:16.824Z,71.54
2018-08-04T07:11:10.363Z,71.64
2018-08-04T07:12:10.255Z,71.67
2018-08-04T07:14:03.118Z,70.61
2018-08-04T07:15:03.006Z,70.15
2018-08-04T07:16:55.857Z,69.86
2018-08-04T07:17:56.319Z,69.67
2018-08-04T07:19:48.617Z,68.79
2018-08-04T07:20:48.528Z,68.60
2018-08-04T07:22:41.362Z,68.99
2018-08-04T07:23:41.253Z,68.44
2018-08-04T07:25:34.944Z,68.05
2018-08-04T07:26:34.013Z,68.05
2018-08-04T07:28:26.878Z,67.28
2018-08-04T07:29:26.767Z,66.50
2018-08-04T07:31:19.590Z,67.86
2018-08-04T07:32:19.519Z,67.66
2018-08-04T07:34:12.433Z,67.08
2018-08-04T07:35:12.273Z,66.60
2018-08-04T07:37:05.141Z,67.37
2018-08-04T07:38:05.009Z,67.57
2018-08-04T07:39:57.847Z,67.66
2018-08-04T07:40:57.769Z,66.50
2018-08-04T07:42:50.628Z,67.18
2018-08-04T07:43:50.514Z,67.18
2018-08-04T07:45:43.344Z,67.92
2018-08-04T07:46:43.260Z,67.73
2018-08-04T07:48:36.137Z,68.08
2018-08-04T07:49:36.000Z,67.79
2018-08-04T07:51:28.867Z,68.18
2018-08-04T07:52:28.755Z,67.99
2018-08-04T07:54:21.617Z,68.37
2018-08-04T07:55:21.510Z,68.21
2018-08-04T07:57:14.372Z,68.21
2018-08-04T07:58:14.260Z,68.31
2018-08-04T08:00:07.756Z,68.21
2018-08-04T08:01:07.517Z,68.21
2018-08-04T08:03:00.366Z,68.02
2018-08-04T08:04:00.289Z,68.60
2018-08-04T08:05:53.098Z,68.02
2018-08-04T08:06:53.030Z,67.34
2018-08-04T08:08:45.869Z,67.44
2018-08-04T08:09:45.763Z,67.57
2018-08-04T08:11:38.636Z,67.47
2018-08-04T08:12:38.529Z,67.50
2018-08-04T08:14:31.369Z,67.31
2018-08-04T08:15:31.269Z,67.41
2018-08-04T08:17:28.022Z,66.82
2018-08-04T08:20:20.963Z,68.63
2018-08-04T08:21:20.864Z,67.96
2018-08-04T08:23:14.099Z,68.15
2018-08-04T08:24:13.612Z,68.15
2018-08-04T08:26:06.458Z,68.54
2018-08-04T08:27:06.361Z,68.54
2018-08-04T08:28:59.193Z,68.35
2018-08-04T08:29:59.109Z,68.15
2018-08-04T08:31:51.962Z,67.57
2018-08-04T08:32:52.009Z,67.47
2018-08-04T08:34:44.721Z,67.08
2018-08-04T08:35:44.609Z,67.70
2018-08-04T08:37:37.455Z,67.31
2018-08-04T08:38:37.379Z,66.05
2018-08-04T08:40:30.290Z,65.79
2018-08-04T08:41:30.128Z,65.98
2018-08-04T08:43:23.482Z,66.05
2018-08-04T08:44:23.380Z,65.85
2018-08-04T08:46:16.295Z,67.60
2018-08-04T08:47:16.203Z,67.11
2018-08-04T08:49:08.957Z,66.92
2018-08-04T08:50:08.872Z,66.63
2018-08-04T08:52:01.926Z,66.53
2018-08-04T08:53:02.355Z,66.14
2018-08-04T08:54:54.669Z,66.05
2018-08-04T08:55:54.578Z,65.95
2018-08-04T08:57:47.921Z,67.31
2018-08-04T08:58:47.830Z,66.34
2018-08-04T09:00:40.679Z,66.72
2018-08-04T09:01:40.585Z,66.76
2018-08-04T09:03:33.423Z,65.69
2018-08-04T09:04:33.335Z,65.79
2018-08-04T09:06:26.179Z,64.88
2018-08-04T09:07:26.285Z,65.79
2018-08-04T09:09:18.915Z,65.69
2018-08-04T09:10:18.860Z,65.33
2018-08-04T09:12:11.714Z,64.65
2018-08-04T09:13:11.735Z,64.29
2018-08-04T09:15:04.953Z,64.14
2018-08-04T09:16:04.860Z,65.11
2018-08-04T09:17:58.195Z,64.33
2018-08-04T09:18:58.097Z,65.08
2018-08-04T09:20:50.956Z,66.14
2018-08-04T09:21:50.872Z,66.17
2018-08-04T09:23:43.690Z,66.17
2018-08-04T09:24:43.687Z,64.91
2018-08-04T09:26:36.469Z,65.11
2018-08-04T09:27:36.370Z,65.63
2018-08-04T09:29:29.233Z,64.36
2018-08-04T09:30:29.113Z,64.26
2018-08-04T09:32:21.950Z,64.62
2018-08-04T09:33:21.850Z,64.04
2018-08-04T09:35:14.697Z,63.52
2018-08-04T09:36:14.602Z,63.52
2018-08-04T09:38:07.439Z,63.97
2018-08-04T09:39:07.472Z,64.36
2018-08-04T09:41:00.215Z,63.90
2018-08-04T09:42:00.104Z,63.52
2018-08-04T09:43:52.960Z,64.26
2018-08-04T09:44:52.860Z,64.65
2018-08-04T09:46:45.703Z,64.49
2018-08-04T09:47:45.604Z,64.78
2018-08-04T09:49:39.487Z,63.42
2018-08-04T09:50:39.378Z,64.10
2018-08-04T09:52:32.242Z,63.55
2018-08-04T09:53:32.125Z,62.64
2018-08-04T09:55:24.973Z,62.74
2018-08-04T09:56:24.892Z,63.35
2018-08-04T09:58:17.731Z,63.16
2018-08-04T09:59:17.647Z,63.62
2018-08-04T10:01:10.477Z,63.45
2018-08-04T10:02:10.373Z,62.96
2018-08-04T10:04:03.210Z,62.67
2018-08-04T10:05:03.181Z,62.38
2018-08-04T10:06:55.976Z,62.96
2018-08-04T10:07:55.875Z,62.64
2018-08-04T10:09:49.640Z,62.74
2018-08-04T10:10:49.043Z,63.32
2018-08-04T10:12:41.470Z,63.52
2018-08-04T10:13:41.375Z,64.00
2018-08-04T10:15:35.633Z,64.36
2018-08-04T10:16:35.554Z,64.10
2018-08-04T10:18:28.409Z,64.69
2018-08-04T10:19:28.319Z,64.65
2018-08-04T10:21:21.139Z,65.72
2018-08-04T10:22:21.071Z,64.88
2018-08-04T10:24:13.932Z,64.49
2018-08-04T10:25:13.821Z,64.72
2018-08-04T10:27:06.698Z,63.48
2018-08-04T10:28:06.566Z,63.48
2018-08-04T10:29:59.384Z,62.73
2018-08-04T10:30:59.311Z,61.66
2018-08-04T10:32:52.211Z,61.86
2018-08-04T10:33:52.059Z,60.98
2018-08-04T10:35:44.906Z,62.05
2018-08-04T10:36:44.803Z,60.20
2018-08-04T10:38:37.712Z,61.08
2018-08-04T10:39:37.561Z,60.30
2018-08-04T10:41:30.415Z,61.66
2018-08-04T10:42:30.303Z,61.37
2018-08-04T10:44:24.685Z,61.18
2018-08-04T10:45:23.869Z,61.21
2018-08-04T10:47:16.732Z,61.66
2018-08-04T10:48:16.628Z,61.96
2018-08-04T10:50:09.984Z,61.93
2018-08-04T10:51:09.887Z,62.63
2018-08-04T10:53:02.747Z,62.44
2018-08-04T10:54:02.631Z,61.79
2018-08-04T10:55:56.012Z,59.94
2018-08-04T10:56:55.434Z,61.04
2018-08-04T10:58:48.235Z,59.02
2018-08-04T10:59:48.128Z,59.22
2018-08-04T11:01:40.961Z,59.41
2018-08-04T11:02:40.887Z,59.19
2018-08-04T11:04:33.758Z,59.58
2018-08-04T11:05:33.632Z,59.31
2018-08-04T11:07:26.480Z,60.06
2018-08-04T11:08:26.384Z,60.06
2018-08-04T11:10:19.220Z,59.80
2018-08-04T11:11:19.128Z,59.31
2018-08-04T11:13:11.990Z,58.44
2018-08-04T11:14:11.920Z,58.53
2018-08-04T11:16:04.741Z,59.12
2018-08-04T11:17:04.634Z,59.05
2018-08-04T11:18:57.480Z,59.05
2018-08-04T11:19:57.397Z,58.56
2018-08-04T11:21:50.222Z,58.76
2018-08-04T11:22:50.143Z,58.11
2018-08-04T11:24:42.991Z,58.30
2018-08-04T11:25:42.896Z,57.71
2018-08-04T11:27:35.760Z,58.01
2018-08-04T11:28:35.624Z,57.71
2018-08-04T11:30:28.481Z,56.64
2018-08-04T11:31:28.416Z,56.93
2018-08-04T11:33:21.222Z,56.35
2018-08-04T11:34:21.126Z,57.13
2018-08-04T11:36:13.954Z,56.84
2018-08-04T11:37:13.883Z,57.71
2018-08-04T11:39:06.722Z,58.17
2018-08-04T11:40:06.640Z,57.42
2018-08-04T11:42:00.027Z,57.13
2018-08-04T11:42:59.890Z,56.25
2018-08-04T11:44:52.768Z,55.79
2018-08-04T11:45:52.641Z,55.98
2018-08-04T11:47:45.481Z,55.30
2018-08-04T11:48:45.415Z,56.27
2018-08-04T11:50:38.217Z,55.30
2018-08-04T11:51:38.226Z,55.20
2018-08-04T11:53:31.030Z,54.64
2018-08-04T11:54:30.877Z,54.64
2018-08-04T11:56:23.736Z,54.59
2018-08-04T11:57:23.632Z,55.27
2018-08-04T11:59:16.513Z,55.37
2018-08-04T12:00:16.402Z,55.27
2018-08-04T12:02:09.745Z,55.10
2018-08-04T12:03:09.644Z,54.74
2018-08-04T12:05:02.484Z,53.76
2018-08-04T12:06:02.398Z,54.35
2018-08-04T12:07:55.238Z,53.98
2018-08-04T12:08:55.174Z,53.78
2018-08-04T12:10:47.998Z,53.78
2018-08-04T12:11:47.909Z,53.69
2018-08-04T12:13:40.752Z,53.59
2018-08-04T12:14:40.643Z,53.20
2018-08-04T12:16:34.007Z,52.51
2018-08-04T12:17:33.405Z,53.42
2018-08-04T12:19:26.256Z,52.93
2018-08-04T12:20:26.141Z,52.71
2018-08-04T12:22:19.891Z,53.33
2018-08-04T12:23:19.825Z,52.44
2018-08-04T12:25:12.669Z,52.91
2018-08-04T12:26:12.591Z,52.51
2018-08-04T12:28:05.409Z,53.49
2018-08-04T12:29:05.320Z,52.91
2018-08-04T12:30:58.153Z,52.83
2018-08-04T12:31:58.069Z,52.73
2018-08-04T12:33:50.906Z,52.64
2018-08-04T12:34:50.806Z,52.34
2018-08-04T12:36:43.656Z,52.54
2018-08-04T12:37:43.560Z,52.81
2018-08-04T12:39:36.417Z,52.51
2018-08-04T12:40:36.309Z,52.71
2018-08-04T12:42:29.142Z,51.93
2018-08-04T12:43:29.661Z,51.17
2018-08-04T12:45:21.951Z,50.12
2018-08-04T12:46:21.815Z,49.43
2018-08-04T12:48:14.666Z,50.61
2018-08-04T12:49:14.561Z,50.22
2018-08-04T12:51:07.401Z,50.61
2018-08-04T12:52:07.326Z,50.71
2018-08-04T12:54:00.186Z,50.81
2018-08-04T12:55:00.060Z,50.71
2018-08-04T12:56:52.918Z,50.12
2018-08-04T12:57:52.812Z,49.04
2018-08-04T12:59:45.656Z,49.53
2018-08-04T13:00:45.603Z,49.24
2018-08-04T13:02:38.404Z,48.55
2018-08-04T13:03:38.312Z,48.85
2018-08-04T13:05:31.168Z,48.36
2018-08-04T13:06:31.098Z,48.77
2018-08-04T13:08:23.931Z,47.67
2018-08-04T13:09:23.817Z,48.75
2018-08-04T13:11:16.634Z,48.63
2018-08-04T13:12:16.561Z,48.24
2018-08-04T13:14:09.397Z,48.82
2018-08-04T13:15:09.315Z,49.31
2018-08-04T13:17:02.135Z,48.94
2018-08-04T13:18:02.077Z,49.16
2018-08-04T13:19:55.005Z,48.60
2018-08-04T13:20:54.960Z,48.90
2018-08-04T13:22:47.760Z,47.89
2018-08-04T13:23:47.657Z,47.97
2018-08-04T13:25:40.530Z,48.55
2018-08-04T13:26:40.426Z,48.46
2018-08-04T13:28:33.257Z,48.41
2018-08-04T13:29:33.201Z,46.81
2018-08-04T13:31:25.991Z,46.52
2018-08-04T13:32:26.009Z,46.23
2018-08-04T13:34:18.751Z,45.83
2018-08-04T13:35:18.674Z,46.05
2018-08-04T13:37:11.544Z,45.78
2018-08-04T13:38:11.408Z,45.76
2018-08-04T13:40:04.254Z,45.66
2018-08-04T13:41:04.154Z,46.05
2018-08-04T13:42:57.073Z,45.07
2018-08-04T13:43:56.898Z,46.25
2018-08-04T13:45:49.753Z,46.84
2018-08-04T13:46:49.671Z,46.81
2018-08-04T13:48:42.545Z,46.40
2018-08-04T13:49:42.399Z,47.47
2018-08-04T13:51:35.240Z,47.50
2018-08-04T13:52:35.151Z,45.93
2018-08-04T13:54:28.749Z,46.23
2018-08-04T13:55:27.934Z,46.54
2018-08-04T13:57:20.751Z,46.33
2018-08-04T13:58:20.660Z,46.03
2018-08-04T14:00:13.501Z,46.54
2018-08-04T14:01:13.408Z,46.23
2018-08-04T14:03:06.264Z,45.27
2018-08-04T14:04:06.156Z,45.27
2018-08-04T14:05:59.022Z,45.09
2018-08-04T14:06:58.909Z,45.31
2018-08-04T14:08:51.745Z,45.27
2018-08-04T14:09:51.655Z,45.47
2018-08-04T14:11:44.480Z,45.37
2018-08-04T14:12:44.399Z,44.60
2018-08-04T14:14:37.267Z,43.52
2018-08-04T14:15:37.147Z,44.58
2018-08-04T14:17:30.030Z,44.09
2018-08-04T14:18:29.958Z,44.19
2018-08-04T14:20:22.739Z,44.21
2018-08-04T14:21:22.644Z,44.51
2018-08-04T14:23:15.510Z,44.29
2018-08-04T14:24:15.455Z,44.19
2018-08-04T14:26:08.260Z,44.29
2018-08-04T14:27:08.152Z,44.48
2018-08-04T14:29:00.994Z,44.68
2018-08-04T14:30:00.910Z,44.31
2018-08-04T14:31:53.751Z,43.41
2018-08-04T14:32:53.772Z,44.12
2018-08-04T14:34:46.563Z,44.23
2018-08-04T14:35:46.392Z,43.45
2018-08-04T14:37:39.225Z,42.76
2018-08-04T14:38:39.148Z,43.05
2018-08-04T14:40:32.005Z,42.58
2018-08-04T14:41:31.915Z,42.98
2018-08-04T14:43:24.751Z,43.65
2018-08-04T14:44:24.658Z,44.02
2018-08-04T14:46:17.472Z,43.80
2018-08-04T14:47:17.402Z,44.46
2018-08-04T14:49:10.286Z,45.07
2018-08-04T14:50:10.161Z,45.07
2018-08-04T14:52:03.000Z,44.38
2018-08-04T14:53:02.906Z,44.29
2018-08-04T14:54:56.290Z,44.76
2018-08-04T14:55:56.154Z,44.46
2018-08-04T14:57:49.509Z,44.38
2018-08-04T14:58:48.924Z,43.92
2018-08-04T15:00:41.744Z,43.55
2018-08-04T15:01:41.649Z,43.35
2018-08-04T15:03:34.529Z,43.08
2018-08-04T15:04:34.432Z,42.96
2018-08-04T15:06:27.260Z,42.57
2018-08-04T15:07:27.164Z,43.05
2018-08-04T15:09:19.999Z,42.57
2018-08-04T15:10:19.943Z,42.86
2018-08-04T15:12:12.758Z,43.04
2018-08-04T15:13:12.676Z,43.55
2018-08-04T15:15:05.519Z,42.96
2018-08-04T15:16:05.421Z,42.55
2018-08-04T15:17:58.243Z,44.09
2018-08-04T15:18:58.169Z,43.70
2018-08-04T15:20:51.529Z,44.24
2018-08-04T15:21:51.429Z,44.64
2018-08-04T15:23:44.266Z,43.84
2018-08-04T15:24:44.165Z,44.17
2018-08-04T15:26:37.013Z,42.35
2018-08-04T15:27:36.938Z,41.49
2018-08-04T15:29:29.757Z,40.25
2018-08-04T15:30:29.665Z,40.35
2018-08-04T15:32:23.015Z,39.86
2018-08-04T15:33:22.936Z,39.27
2018-08-04T15:35:15.751Z,39.76
2018-08-04T15:36:15.664Z,39.00
2018-08-04T15:38:08.625Z,38.40
2018-08-04T15:39:08.434Z,38.40
2018-08-04T15:41:01.260Z,38.78
2018-08-04T15:42:01.199Z,38.68
2018-08-04T15:43:54.016Z,39.07
2018-08-04T15:44:53.919Z,38.85
2018-08-04T15:46:47.286Z,37.16
2018-08-04T15:47:47.201Z,36.69
2018-08-04T15:49:40.049Z,36.40
2018-08-04T15:50:39.973Z,36.65
2018-08-04T15:52:32.799Z,37.80
2018-08-04T15:53:32.707Z,37.74
2018-08-04T15:55:25.544Z,37.32
2018-08-04T15:56:25.451Z,36.26
2018-08-04T15:58:18.277Z,36.55
2018-08-04T15:59:18.184Z,36.75
2018-08-04T16:01:11.009Z,36.38
2018-08-04T16:02:10.930Z,36.55
2018-08-04T16:04:03.791Z,35.80
2018-08-04T16:05:03.688Z,35.53
2018-08-04T16:06:56.507Z,33.97
2018-08-04T16:07:56.468Z,34.82
2018-08-04T16:09:49.311Z,35.49
2018-08-04T16:10:49.183Z,35.78
2018-08-04T16:12:42.010Z,36.54
2018-08-04T16:13:41.936Z,36.36
2018-08-04T16:15:34.770Z,35.41
2018-08-04T16:16:34.729Z,35.59
2018-08-04T16:18:27.545Z,35.69
2018-08-04T16:19:27.965Z,35.88
2018-08-04T16:21:20.272Z,34.15
2018-08-04T16:22:20.192Z,34.84
2018-08-04T16:24:13.021Z,34.17
2018-08-04T16:25:12.929Z,34.17
2018-08-04T16:27:05.764Z,33.29
2018-08-04T16:28:06.299Z,33.58
2018-08-04T16:29:58.524Z,34.03
2018-08-04T16:30:58.431Z,34.63
2018-08-04T16:32:51.262Z,35.20
2018-08-04T16:33:51.183Z,35.10
2018-08-04T16:35:44.040Z,34.90
2018-08-04T16:36:43.922Z,35.39
2018-08-04T16:38:36.781Z,35.21
2018-08-04T16:39:36.683Z,35.31
2018-08-04T16:41:30.084Z,35.39
2018-08-04T16:42:29.440Z,35.49
2018-08-04T16:44:22.269Z,36.05
2018-08-04T16:45:22.170Z,36.40
2018-08-04T16:47:15.016Z,38.33
2018-08-04T16:48:14.924Z,37.96
2018-08-04T16:50:07.777Z,37.29
2018-08-04T16:51:07.674Z,37.68
2018-08-04T16:53:00.537Z,39.01
2018-08-04T16:54:00.430Z,39.33
2018-08-04T16:55:53.293Z,37.98
2018-08-04T16:56:53.200Z,37.23
2018-08-04T16:58:46.048Z,36.63
2018-08-04T16:59:45.927Z,37.23
2018-08-04T17:01:39.306Z,37.23
2018-08-04T17:02:39.195Z,37.72
2018-08-04T17:04:32.631Z,37.60
2018-08-04T17:05:31.954Z,39.01
2018-08-04T17:07:24.788Z,39.70
2018-08-04T17:08:24.686Z,39.70
2018-08-04T17:10:17.542Z,39.62
2018-08-04T17:11:17.431Z,39.23
2018-08-04T17:13:10.280Z,38.68
2018-08-04T17:14:10.191Z,38.31
2018-08-04T17:16:03.051Z,37.42
2018-08-04T17:17:02.942Z,37.99
2018-08-04T17:18:55.782Z,38.29
2018-08-04T17:19:55.682Z,38.46
2018-08-04T17:21:48.544Z,38.29
2018-08-04T17:22:48.442Z,37.63
2018-08-04T17:24:41.272Z,36.41
2018-08-04T17:25:41.211Z,36.51
2018-08-04T17:27:34.046Z,36.47
2018-08-04T17:28:33.937Z,36.69
2018-08-04T17:30:27.821Z,36.95
2018-08-04T17:31:26.705Z,36.77
2018-08-04T17:33:19.541Z,36.65
2018-08-04T17:34:19.435Z,36.46
2018-08-04T17:36:12.310Z,37.44
2018-08-04T17:37:12.244Z,37.15
2018-08-04T17:39:05.025Z,36.87
2018-08-04T17:40:04.954Z,36.18
2018-08-04T17:41:57.780Z,36.40
2018-08-04T17:42:57.708Z,36.47
2018-08-04T17:44:50.512Z,38.03
2018-08-04T17:45:50.430Z,37.93
2018-08-04T17:47:43.293Z,38.11
2018-08-04T17:48:43.182Z,37.93
2018-08-04T17:50:36.003Z,37.92
2018-08-04T17:51:35.965Z,38.03
2018-08-04T17:53:28.767Z,38.48
2018-08-04T17:54:28.693Z,38.50
2018-08-04T17:56:22.047Z,38.21
2018-08-04T17:57:22.008Z,38.70
2018-08-04T17:59:14.773Z,38.78
2018-08-04T18:00:14.700Z,39.45
2018-08-04T18:02:07.542Z,39.64
2018-08-04T18:03:07.439Z,39.15
2018-08-04T18:05:00.291Z,40.98
2018-08-04T18:06:00.203Z,41.45
2018-08-04T18:07:53.038Z,42.66
2018-08-04T18:08:52.941Z,44.10
2018-08-04T18:10:45.768Z,45.14
2018-08-04T18:11:45.689Z,45.90
2018-08-04T18:13:38.612Z,46.85
2018-08-04T18:14:38.446Z,47.44
2018-08-04T18:16:31.278Z,48.19
2018-08-04T18:17:31.203Z,48.58
2018-08-04T18:19:24.007Z,49.34
2018-08-04T18:20:23.932Z,49.73
2018-08-04T18:22:16.785Z,49.99
2018-08-04T18:23:16.678Z,50.58
2018-08-04T18:25:10.383Z,50.58
2018-08-04T18:26:10.316Z,50.65
2018-08-04T18:28:04.121Z,51.24
2018-08-04T18:29:04.040Z,51.04
2018-08-04T18:30:57.412Z,52.02
2018-08-04T18:31:57.305Z,51.73
2018-08-04T18:33:50.126Z,52.28